EW9099 Bjarsjolagard SE current weather conditions

sailwx.info

Wind from 139 at 6 knots gusting 9

Air temperature 2.8° C
Dewpoint 1.6° C

Last reported at 2019-Dec-13 14:01 UTC.
Time now 2019-Dec-13 14:32 UTC

Location: N 55°44' E 013°41'.
View on Google Maps.

See reports from other nearby stations

  
Tides and Currents Weather Stations Pressure Air Temp Water Temp Dewpoint Dewpoint Depression Visibility Wind Speed Wind Dir Waves Ship Positions
date/time (UTC)wind fromknots sea level pressurealtimeterstation pressurevisibilityair tempwater tempwave heightnotes
2019-Dec-13 14:01 139 6 gusting 9 2.8
2019-Dec-13 13:47 123 6 gusting 10 2.8
2019-Dec-13 13:31 132 7 gusting 13 2.8
2019-Dec-13 13:17 126 6 gusting 11 2.8
2019-Dec-13 13:02 150 8 gusting 13 2.8
2019-Dec-13 12:46 134 7 gusting 10 2.8
2019-Dec-13 12:31 096 7 gusting 13 2.8
2019-Dec-13 12:16 154 9 gusting 13 3.3
2019-Dec-13 12:01 157 8 gusting 16 3.3
2019-Dec-13 11:46 138 8 gusting 16 3.3
2019-Dec-13 11:30 138 11 gusting 17 3.3
2019-Dec-13 11:16 130 5 gusting 10 3.3
2019-Dec-13 11:01 128 7 gusting 13 3.3
2019-Dec-13 10:45 140 7 gusting 10 3.3
2019-Dec-13 10:31 138 8 gusting 12 3.3
2019-Dec-13 10:16 153 7 gusting 13 2.8
2019-Dec-13 10:00 103 8 gusting 13 2.8
2019-Dec-13 09:46 136 8 gusting 13 3.3
2019-Dec-13 09:30 148 7 gusting 14 2.8
2019-Dec-13 09:15 142 8 gusting 13 2.8
2019-Dec-13 09:00 164 8 gusting 15 2.8
2019-Dec-13 08:45 124 9 gusting 13 2.8
2019-Dec-13 08:30 134 8 gusting 13 2.8
2019-Dec-13 08:18 140 10 gusting 15 2.8
2019-Dec-13 08:02 152 8 gusting 14 2.8
2019-Dec-13 07:48 143 8 gusting 15 2.8
2019-Dec-13 07:32 158 9 gusting 14 3.3
2019-Dec-13 07:16 174 8 gusting 11 3.3
2019-Dec-13 07:02 175 8 gusting 13 3.3
2019-Dec-13 06:49 165 8 gusting 13 3.3
2019-Dec-13 06:32 165 6 gusting 13 3.3
2019-Dec-13 06:16 162 8 gusting 14 3.3
2019-Dec-13 06:01 156 8 gusting 13 3.3
2019-Dec-13 05:46 166 6 gusting 14 3.3
2019-Dec-13 05:31 168 7 gusting 12 3.3
2019-Dec-13 05:16 172 7 gusting 13 3.3
2019-Dec-13 05:02 182 8 gusting 12 3.3
2019-Dec-13 04:46 180 9 gusting 13 3.3
2019-Dec-13 04:31 171 7 gusting 11 3.3
2019-Dec-13 04:16 165 9 gusting 14 3.3
2019-Dec-13 04:01 185 7 gusting 13 3.3
2019-Dec-13 03:46 168 7 gusting 11 3.3
2019-Dec-13 03:31 158 6 gusting 11 3.3
2019-Dec-13 03:15 167 6 gusting 8 3.3
2019-Dec-13 02:46 182 6 gusting 10 3.3
2019-Dec-13 02:30 185 6 gusting 8 3.3
2019-Dec-13 02:15 177 5 gusting 8 3.3
2019-Dec-13 02:00 190 5 gusting 8 3.3
2019-Dec-13 01:45 178 5 gusting 8 3.3
2019-Dec-13 01:30 168 5 gusting 8 3.3
2019-Dec-13 01:15 170 4 gusting 7 2.8
2019-Dec-13 01:00 184 3 gusting 6 2.8
2019-Dec-13 00:45 197 4 gusting 6 2.8
2019-Dec-13 00:33 192 5 gusting 9 2.8
2019-Dec-13 00:18 193 6 gusting 10 2.8
2019-Dec-13 00:04 196 5 gusting 8 2.8
2019-Dec-12 23:46 205 6 gusting 9 3.3
2019-Dec-12 23:34 203 6 gusting 8 3.3
2019-Dec-12 23:17 208 6 gusting 10 3.3
2019-Dec-12 23:02 209 6 gusting 9 3.3
2019-Dec-12 22:49 194 7 gusting 12 3.3
2019-Dec-12 22:31 199 6 gusting 10 3.3
2019-Dec-12 22:16 235 7 gusting 10 3.3
2019-Dec-12 22:01 208 6 gusting 12 3.3
2019-Dec-12 21:46 227 7 gusting 13 3.3
2019-Dec-12 21:31 202 6 gusting 9 3.3
2019-Dec-12 21:16 212 6 gusting 13 3.3
2019-Dec-12 21:01 227 7 gusting 12 3.3
2019-Dec-12 20:46 203 4 gusting 6 2.8
2019-Dec-12 20:31 224 4 gusting 8 2.8
2019-Dec-12 20:16 220 7 gusting 13 2.8
2019-Dec-12 20:01 207 6 gusting 8 2.8
2019-Dec-12 19:46 222 4 gusting 10 2.8
2019-Dec-12 19:31 236 7 gusting 12 2.8
2019-Dec-12 19:15 224 6 gusting 9 2.8
2019-Dec-12 19:00 218 5 gusting 8 2.8
2019-Dec-12 18:46 205 6 gusting 9 2.8
2019-Dec-12 18:31 218 5 gusting 8 2.8
2019-Dec-12 18:16 221 4 gusting 6 2.8
2019-Dec-12 17:46 236 4 gusting 6 2.8
2019-Dec-12 17:30 223 4 gusting 6 2.8
2019-Dec-12 17:17 215 4 gusting 6 2.8
2019-Dec-12 17:01 213 4 gusting 7 2.8
2019-Dec-12 16:46 192 4 gusting 6 2.8
2019-Dec-12 16:30 220 6 gusting 8 2.8
2019-Dec-12 16:15 194 3 gusting 6 2.8
2019-Dec-12 16:00 226 2 gusting 4 2.8
2019-Dec-12 15:46 224 3 gusting 5 2.8
2019-Dec-12 15:30 250 2.8
2019-Dec-12 15:16 239 1 gusting 6 2.8
2019-Dec-12 15:00 234 3 gusting 7 3.3
2019-Dec-12 14:45 235 2 gusting 7 3.3
2019-Dec-12 14:30 223 2 gusting 6 3.3
2019-Dec-12 14:00 229 3 gusting 5 3.3
2019-Dec-12 13:45 234 2 gusting 5 3.3
2019-Dec-12 13:30 231 3 gusting 5 3.3
2019-Dec-12 13:15 218 3 gusting 4 3.3
2019-Dec-12 13:00 223 3 gusting 5 3.3
2019-Dec-12 12:45 220 2 gusting 6 3.3
2019-Dec-12 12:30 229 4 gusting 6 3.3
2019-Dec-12 12:00 213 2 gusting 5 2.8
2019-Dec-12 11:45 207 3 gusting 6 2.8
2019-Dec-12 11:32 219 2 gusting 4 2.2
2019-Dec-12 11:17 218 2 gusting 4 2.2
2019-Dec-12 11:02 229 2 gusting 5 2.2
2019-Dec-12 10:47 197 3 gusting 5 1.7
2019-Dec-12 10:32 202 2 gusting 4 1.7
2019-Dec-12 10:18 194 2 gusting 4 1.7
2019-Dec-12 10:02 181 1 gusting 4 1.7
2019-Dec-12 09:46 186 2 gusting 4 1.7
2019-Dec-12 09:32 196 2 gusting 4 1.1
2019-Dec-12 09:17 200 3 gusting 5 1.1
2019-Dec-12 09:03 204 2 gusting 5 1.1
2019-Dec-12 08:46 205 2 gusting 4 0.6
2019-Dec-12 08:32 205 1 gusting 4 0.6
2019-Dec-12 08:16 221 1 gusting 3 0.6
2019-Dec-12 08:02 221 1 gusting 3 0.6
2019-Dec-12 07:46 227 1 gusting 3 0.6
2019-Dec-12 07:31 212 1 gusting 4 0.6
2019-Dec-12 07:02 205 2 gusting 4 0.6
2019-Dec-12 06:46 205 1 gusting 2 0.6
2019-Dec-12 06:31 205 1 gusting 3 0.6
2019-Dec-12 06:16 205 0 gusting 2 0.6
2019-Dec-12 05:45 205 1 gusting 3 0.6
2019-Dec-12 05:30 205 2 gusting 4 1.1
2019-Dec-12 05:15 213 1 gusting 3 1.1
2019-Dec-12 05:00 213 1 gusting 2 1.1
2019-Dec-12 04:45 213 0 gusting 3 1.1
2019-Dec-12 04:30 215 1 gusting 4 1.1
2019-Dec-12 04:18 208 0 gusting 3 1.1
2019-Dec-12 04:02 203 1 gusting 3 1.1
2019-Dec-12 03:49 200 2 gusting 3 1.1
2019-Dec-12 03:33 214 1 gusting 4 1.1
2019-Dec-12 03:17 212 2 gusting 6 1.1
2019-Dec-12 03:02 184 3 gusting 6 1.7
2019-Dec-12 02:47 198 2 gusting 5 1.7
2019-Dec-12 02:31 215 2 gusting 6 1.7
2019-Dec-12 02:17 194 2 gusting 4 1.7
2019-Dec-12 02:01 209 3 gusting 5 1.7
2019-Dec-12 01:46 182 5 gusting 7 2.2
2019-Dec-12 01:31 216 4 gusting 6 2.2
2019-Dec-12 01:16 209 4 gusting 6 2.2
2019-Dec-12 01:01 200 4 gusting 6 2.8
2019-Dec-12 00:46 198 3 gusting 6 2.8
2019-Dec-12 00:30 207 2 gusting 5 2.8
2019-Dec-12 00:15 198 3 gusting 5 2.8
2019-Dec-12 00:01 202 3 gusting 4 2.8
2019-Dec-11 23:46 205 3 gusting 5 2.8
2019-Dec-11 23:30 209 3 gusting 5 2.8
2019-Dec-11 23:15 204 4 gusting 6 2.8
2019-Dec-11 23:00 210 4 gusting 6 2.8
2019-Dec-11 22:45 207 3 gusting 5 2.8
2019-Dec-11 22:30 205 3 gusting 6 2.8
2019-Dec-11 22:15 213 4 gusting 6 2.8
2019-Dec-11 22:00 206 4 gusting 6 3.3
2019-Dec-11 21:45 199 3 gusting 6 3.3
2019-Dec-11 21:30 214 4 gusting 6 3.3
2019-Dec-11 21:15 198 4 gusting 6 3.3
2019-Dec-11 21:00 202 4 gusting 7 3.3
2019-Dec-11 20:45 209 5 gusting 7 3.3
2019-Dec-11 20:30 210 5 gusting 6 3.3
2019-Dec-11 20:15 224 3 gusting 6 3.3
2019-Dec-11 20:02 208 2 gusting 6 3.9
2019-Dec-11 19:47 196 4 gusting 6 3.9
2019-Dec-11 19:33 217 4 gusting 6 3.9
2019-Dec-11 19:18 213 5 gusting 8 3.9
2019-Dec-11 19:01 221 5 gusting 7 3.9
2019-Dec-11 18:46 201 5 gusting 7 3.9
2019-Dec-11 18:33 228 5 gusting 7 3.9
2019-Dec-11 18:18 227 5 gusting 8 3.9
2019-Dec-11 18:02 233 6 gusting 9 3.9
2019-Dec-11 17:47 229 6 gusting 10 3.9
2019-Dec-11 17:31 238 6 gusting 12 3.9
2019-Dec-11 17:16 229 6 gusting 11 3.9
2019-Dec-11 17:01 221 6 gusting 10 3.9
2019-Dec-11 16:47 220 6 gusting 10 3.9
2019-Dec-11 16:32 217 5 gusting 7 3.9
2019-Dec-11 16:16 214 3 gusting 5 3.9
2019-Dec-11 16:01 221 3 gusting 6 3.9
2019-Dec-11 15:46 224 4 gusting 5 3.9
2019-Dec-11 15:32 230 4 gusting 6 3.9
2019-Dec-11 15:16 224 4 gusting 6 3.9
2019-Dec-11 15:02 230 3 gusting 5 3.9
2019-Dec-11 14:46 235 2 gusting 6 3.9
2019-Dec-11 14:30 227 4 gusting 6 3.9
2019-Dec-11 14:16 227 4 gusting 6 4.4
2019-Dec-11 14:02 236 4 gusting 6 3.9